sensor_id;sensor_type;location;lat;lon;timestamp;temperature;humidity
11047;DHT22;5576;50.008;10.596;2022-10-10T00:00:42;11.00;99.90
11047;DHT22;5576;50.008;10.596;2022-10-10T00:03:08;8.40;99.90
11047;DHT22;5576;50.008;10.596;2022-10-10T00:05:36;5.10;99.90
11047;DHT22;5576;50.008;10.596;2022-10-10T00:08:03;8.30;99.90
11047;DHT22;5576;50.008;10.596;2022-10-10T00:10:29;8.30;99.90
11047;DHT22;5576;50.008;10.596;2022-10-10T00:12:55;8.20;99.90
11047;DHT22;5576;50.008;10.596;2022-10-10T00:15:21;8.30;99.90
11047;DHT22;5576;50.008;10.596;2022-10-10T00:17:47;8.30;99.90
11047;DHT22;5576;50.008;10.596;2022-10-10T00:20:14;8.20;99.90
11047;DHT22;5576;50.008;10.596;2022-10-10T00:22:40;11.60;99.90
11047;DHT22;5576;50.008;10.596;2022-10-10T00:25:07;8.30;99.90
11047;DHT22;5576;50.008;10.596;2022-10-10T00:27:33;8.20;99.90
11047;DHT22;5576;50.008;10.596;2022-10-10T00:29:59;8.20;99.90
11047;DHT22;5576;50.008;10.596;2022-10-10T00:32:26;8.20;99.90
11047;DHT22;5576;50.008;10.596;2022-10-10T00:34:51;6.30;99.90
11047;DHT22;5576;50.008;10.596;2022-10-10T00:37:17;11.20;99.90
11047;DHT22;5576;50.008;10.596;2022-10-10T00:39:43;8.40;99.90
11047;DHT22;5576;50.008;10.596;2022-10-10T00:42:11;8.50;99.90
11047;DHT22;5576;50.008;10.596;2022-10-10T00:44:40;8.50;99.90
11047;DHT22;5576;50.008;10.596;2022-10-10T00:47:06;8.50;99.90
11047;DHT22;5576;50.008;10.596;2022-10-10T00:49:36;8.60;99.90
11047;DHT22;5576;50.008;10.596;2022-10-10T00:52:03;8.50;99.90
11047;DHT22;5576;50.008;10.596;2022-10-10T00:54:31;4.50;99.90
11047;DHT22;5576;50.008;10.596;2022-10-10T00:57:06;8.40;99.90
11047;DHT22;5576;50.008;10.596;2022-10-10T00:59:35;8.40;99.90
11047;DHT22;5576;50.008;10.596;2022-10-10T01:02:02;8.40;99.90
11047;DHT22;5576;50.008;10.596;2022-10-10T01:07:05;8.30;99.90
11047;DHT22;5576;50.008;10.596;2022-10-10T01:09:34;12.20;99.90
11047;DHT22;5576;50.008;10.596;2022-10-10T01:12:14;8.20;99.90
11047;DHT22;5576;50.008;10.596;2022-10-10T01:23:00;8.20;99.90
11047;DHT22;5576;50.008;10.596;2022-10-10T01:28:34;9.70;99.90
11047;DHT22;5576;50.008;10.596;2022-10-10T01:31:05;8.10;99.90
11047;DHT22;5576;50.008;10.596;2022-10-10T01:44:59;6.30;99.90
11047;DHT22;5576;50.008;10.596;2022-10-10T01:47:25;8.20;99.90
11047;DHT22;5576;50.008;10.596;2022-10-10T01:49:54;8.20;99.90
11047;DHT22;5576;50.008;10.596;2022-10-10T02:00:48;8.20;99.90
11047;DHT22;5576;50.008;10.596;2022-10-10T02:03:23;8.20;99.90
11047;DHT22;5576;50.008;10.596;2022-10-10T02:06:00;8.10;99.90
11047;DHT22;5576;50.008;10.596;2022-10-10T02:08:34;11.50;99.90
11047;DHT22;5576;50.008;10.596;2022-10-10T02:11:04;8.20;99.90
11047;DHT22;5576;50.008;10.596;2022-10-10T02:13:35;9.40;99.90
11047;DHT22;5576;50.008;10.596;2022-10-10T02:16:06;8.10;99.90
11047;DHT22;5576;50.008;10.596;2022-10-10T02:18:35;11.30;99.90
11047;DHT22;5576;50.008;10.596;2022-10-10T02:21:03;8.20;99.90
11047;DHT22;5576;50.008;10.596;2022-10-10T02:23:31;8.80;99.90
11047;DHT22;5576;50.008;10.596;2022-10-10T02:25:58;8.30;99.90
11047;DHT22;5576;50.008;10.596;2022-10-10T02:28:34;8.40;99.90
11047;DHT22;5576;50.008;10.596;2022-10-10T02:31:06;6.10;99.90
11047;DHT22;5576;50.008;10.596;2022-10-10T02:33:43;10.90;99.90
11047;DHT22;5576;50.008;10.596;2022-10-10T02:36:12;8.30;99.90
11047;DHT22;5576;50.008;10.596;2022-10-10T02:38:38;8.20;99.90
11047;DHT22;5576;50.008;10.596;2022-10-10T02:41:07;8.20;99.90
11047;DHT22;5576;50.008;10.596;2022-10-10T02:43:35;8.10;99.90
11047;DHT22;5576;50.008;10.596;2022-10-10T02:46:03;8.10;99.90
11047;DHT22;5576;50.008;10.596;2022-10-10T02:48:31;8.10;99.90
11047;DHT22;5576;50.008;10.596;2022-10-10T02:50:57;6.70;99.90
11047;DHT22;5576;50.008;10.596;2022-10-10T02:53:23;8.00;99.90
11047;DHT22;5576;50.008;10.596;2022-10-10T02:55:48;8.00;99.90
11047;DHT22;5576;50.008;10.596;2022-10-10T02:58:14;8.10;99.90
11047;DHT22;5576;50.008;10.596;2022-10-10T03:00:42;8.20;99.90
11047;DHT22;5576;50.008;10.596;2022-10-10T03:03:08;8.20;99.90
11047;DHT22;5576;50.008;10.596;2022-10-10T03:05:33;10.80;99.90
11047;DHT22;5576;50.008;10.596;2022-10-10T03:07:59;10.20;99.90
11047;DHT22;5576;50.008;10.596;2022-10-10T03:10:25;8.10;99.90
11047;DHT22;5576;50.008;10.596;2022-10-10T03:12:51;8.00;99.90
11047;DHT22;5576;50.008;10.596;2022-10-10T03:15:17;8.00;99.90
11047;DHT22;5576;50.008;10.596;2022-10-10T03:17:42;7.90;99.90
11047;DHT22;5576;50.008;10.596;2022-10-10T03:20:09;8.00;99.90
11047;DHT22;5576;50.008;10.596;2022-10-10T03:22:35;7.90;99.90
11047;DHT22;5576;50.008;10.596;2022-10-10T03:25:02;7.90;99.90
11047;DHT22;5576;50.008;10.596;2022-10-10T03:27:28;7.50;99.90
11047;DHT22;5576;50.008;10.596;2022-10-10T03:29:54;8.10;99.90
11047;DHT22;5576;50.008;10.596;2022-10-10T03:32:19;8.00;99.90
11047;DHT22;5576;50.008;10.596;2022-10-10T03:34:45;7.00;99.90
11047;DHT22;5576;50.008;10.596;2022-10-10T03:37:11;7.90;99.90
11047;DHT22;5576;50.008;10.596;2022-10-10T03:39:37;7.80;99.90
11047;DHT22;5576;50.008;10.596;2022-10-10T03:42:03;7.80;99.90
11047;DHT22;5576;50.008;10.596;2022-10-10T03:44:29;7.70;99.90
11047;DHT22;5576;50.008;10.596;2022-10-10T03:46:55;7.70;99.90
11047;DHT22;5576;50.008;10.596;2022-10-10T03:49:20;7.70;99.90
11047;DHT22;5576;50.008;10.596;2022-10-10T03:51:46;7.60;99.90
11047;DHT22;5576;50.008;10.596;2022-10-10T03:54:12;6.30;99.90
11047;DHT22;5576;50.008;10.596;2022-10-10T03:56:37;7.40;99.90
11047;DHT22;5576;50.008;10.596;2022-10-10T03:59:04;7.60;99.90
11047;DHT22;5576;50.008;10.596;2022-10-10T04:01:31;7.70;99.90
11047;DHT22;5576;50.008;10.596;2022-10-10T04:03:57;7.70;99.90
11047;DHT22;5576;50.008;10.596;2022-10-10T04:06:23;7.70;99.90
11047;DHT22;5576;50.008;10.596;2022-10-10T04:08:49;7.70;99.90
11047;DHT22;5576;50.008;10.596;2022-10-10T04:11:14;7.80;99.90
11047;DHT22;5576;50.008;10.596;2022-10-10T04:13:40;7.80;99.90
11047;DHT22;5576;50.008;10.596;2022-10-10T04:16:06;7.80;99.90
11047;DHT22;5576;50.008;10.596;2022-10-10T04:18:31;7.80;99.90
11047;DHT22;5576;50.008;10.596;2022-10-10T04:21:01;7.90;99.90
11047;DHT22;5576;50.008;10.596;2022-10-10T04:23:27;7.90;99.90
11047;DHT22;5576;50.008;10.596;2022-10-10T04:25:53;7.90;99.90
11047;DHT22;5576;50.008;10.596;2022-10-10T04:28:19;8.10;99.90
11047;DHT22;5576;50.008;10.596;2022-10-10T04:30:45;8.10;99.90
11047;DHT22;5576;50.008;10.596;2022-10-10T04:33:11;8.10;99.90
11047;DHT22;5576;50.008;10.596;2022-10-10T04:35:37;8.30;99.90
11047;DHT22;5576;50.008;10.596;2022-10-10T04:38:04;8.40;99.90
11047;DHT22;5576;50.008;10.596;2022-10-10T04:40:29;7.20;99.90
11047;DHT22;5576;50.008;10.596;2022-10-10T04:42:55;11.00;99.90
11047;DHT22;5576;50.008;10.596;2022-10-10T04:45:21;8.50;99.90
11047;DHT22;5576;50.008;10.596;2022-10-10T04:47:52;4.30;99.90
11047;DHT22;5576;50.008;10.596;2022-10-10T04:50:18;8.60;99.90
11047;DHT22;5576;50.008;10.596;2022-10-10T04:52:44;8.80;99.90
11047;DHT22;5576;50.008;10.596;2022-10-10T04:55:09;8.90;99.90
11047;DHT22;5576;50.008;10.596;2022-10-10T04:57:35;9.00;99.90
11047;DHT22;5576;50.008;10.596;2022-10-10T05:00:01;9.20;99.90
11047;DHT22;5576;50.008;10.596;2022-10-10T05:02:27;9.30;99.90
11047;DHT22;5576;50.008;10.596;2022-10-10T05:04:53;9.30;99.90
11047;DHT22;5576;50.008;10.596;2022-10-10T05:07:18;8.00;99.90
11047;DHT22;5576;50.008;10.596;2022-10-10T05:09:44;9.30;99.90
11047;DHT22;5576;50.008;10.596;2022-10-10T05:12:10;9.40;99.90
11047;DHT22;5576;50.008;10.596;2022-10-10T05:14:35;5.60;99.90
11047;DHT22;5576;50.008;10.596;2022-10-10T05:17:02;9.50;99.90
11047;DHT22;5576;50.008;10.596;2022-10-10T05:19:28;9.50;99.90
11047;DHT22;5576;50.008;10.596;2022-10-10T05:21:53;9.70;99.90
11047;DHT22;5576;50.008;10.596;2022-10-10T05:24:19;9.70;99.90
11047;DHT22;5576;50.008;10.596;2022-10-10T05:26:45;9.70;99.90
11047;DHT22;5576;50.008;10.596;2022-10-10T05:29:10;9.80;99.90
11047;DHT22;5576;50.008;10.596;2022-10-10T05:31:36;9.70;99.90
11047;DHT22;5576;50.008;10.596;2022-10-10T05:34:02;11.30;99.90
11047;DHT22;5576;50.008;10.596;2022-10-10T05:36:27;9.80;99.90
11047;DHT22;5576;50.008;10.596;2022-10-10T05:38:53;9.70;99.90
11047;DHT22;5576;50.008;10.596;2022-10-10T05:41:19;9.80;99.90
11047;DHT22;5576;50.008;10.596;2022-10-10T05:43:44;9.80;99.90
11047;DHT22;5576;50.008;10.596;2022-10-10T05:46:10;9.80;99.90
11047;DHT22;5576;50.008;10.596;2022-10-10T05:48:36;9.80;99.90
11047;DHT22;5576;50.008;10.596;2022-10-10T05:51:02;9.90;99.90
11047;DHT22;5576;50.008;10.596;2022-10-10T05:53:28;10.00;99.90
11047;DHT22;5576;50.008;10.596;2022-10-10T05:55:55;10.00;99.90
11047;DHT22;5576;50.008;10.596;2022-10-10T05:58:21;10.00;99.90
11047;DHT22;5576;50.008;10.596;2022-10-10T06:00:47;10.10;99.90
11047;DHT22;5576;50.008;10.596;2022-10-10T06:03:14;10.00;99.90
11047;DHT22;5576;50.008;10.596;2022-10-10T06:05:42;7.20;99.90
11047;DHT22;5576;50.008;10.596;2022-10-10T06:08:09;10.10;99.90
11047;DHT22;5576;50.008;10.596;2022-10-10T06:10:37;10.10;99.90
11047;DHT22;5576;50.008;10.596;2022-10-10T06:13:03;10.20;99.90
11047;DHT22;5576;50.008;10.596;2022-10-10T06:15:29;8.60;99.90
11047;DHT22;5576;50.008;10.596;2022-10-10T06:17:54;13.20;99.90
11047;DHT22;5576;50.008;10.596;2022-10-10T06:20:20;10.20;99.90
11047;DHT22;5576;50.008;10.596;2022-10-10T06:22:46;10.20;99.90
11047;DHT22;5576;50.008;10.596;2022-10-10T06:25:11;10.20;99.90
11047;DHT22;5576;50.008;10.596;2022-10-10T06:27:37;10.20;99.90
11047;DHT22;5576;50.008;10.596;2022-10-10T06:30:03;10.20;99.90
11047;DHT22;5576;50.008;10.596;2022-10-10T06:32:29;10.30;99.90
11047;DHT22;5576;50.008;10.596;2022-10-10T06:34:55;10.20;99.90
11047;DHT22;5576;50.008;10.596;2022-10-10T06:37:21;13.00;99.90
11047;DHT22;5576;50.008;10.596;2022-10-10T06:39:46;10.30;99.90
11047;DHT22;5576;50.008;10.596;2022-10-10T06:42:12;10.30;99.90
11047;DHT22;5576;50.008;10.596;2022-10-10T06:44:38;10.20;99.90
11047;DHT22;5576;50.008;10.596;2022-10-10T06:47:04;10.30;99.90
11047;DHT22;5576;50.008;10.596;2022-10-10T06:49:29;10.30;99.90
11047;DHT22;5576;50.008;10.596;2022-10-10T06:51:55;8.10;99.90
11047;DHT22;5576;50.008;10.596;2022-10-10T06:54:21;10.30;99.90
11047;DHT22;5576;50.008;10.596;2022-10-10T06:56:46;11.90;99.90
11047;DHT22;5576;50.008;10.596;2022-10-10T06:59:12;10.40;99.90
11047;DHT22;5576;50.008;10.596;2022-10-10T07:01:38;6.50;99.90
11047;DHT22;5576;50.008;10.596;2022-10-10T07:04:04;10.40;99.90
11047;DHT22;5576;50.008;10.596;2022-10-10T07:06:30;10.40;99.90
11047;DHT22;5576;50.008;10.596;2022-10-10T07:08:56;10.40;99.90
11047;DHT22;5576;50.008;10.596;2022-10-10T07:11:22;10.50;99.90
11047;DHT22;5576;50.008;10.596;2022-10-10T07:13:49;10.50;99.90
11047;DHT22;5576;50.008;10.596;2022-10-10T07:16:17;10.40;99.90
11047;DHT22;5576;50.008;10.596;2022-10-10T07:18:43;8.60;99.90
11047;DHT22;5576;50.008;10.596;2022-10-10T07:21:09;10.60;99.90
11047;DHT22;5576;50.008;10.596;2022-10-10T07:23:34;10.70;99.90
11047;DHT22;5576;50.008;10.596;2022-10-10T07:26:17;10.80;99.90
11047;DHT22;5576;50.008;10.596;2022-10-10T07:28:47;10.80;99.90
11047;DHT22;5576;50.008;10.596;2022-10-10T07:31:13;10.90;99.90
11047;DHT22;5576;50.008;10.596;2022-10-10T07:33:41;10.90;99.90
11047;DHT22;5576;50.008;10.596;2022-10-10T07:36:07;14.20;99.90
11047;DHT22;5576;50.008;10.596;2022-10-10T07:38:34;15.00;99.90
11047;DHT22;5576;50.008;10.596;2022-10-10T07:41:04;10.90;99.90
11047;DHT22;5576;50.008;10.596;2022-10-10T07:43:30;11.00;99.90
11047;DHT22;5576;50.008;10.596;2022-10-10T07:45:56;12.50;99.90
11047;DHT22;5576;50.008;10.596;2022-10-10T07:48:22;11.00;99.90
11047;DHT22;5576;50.008;10.596;2022-10-10T07:50:48;11.00;99.90
11047;DHT22;5576;50.008;10.596;2022-10-10T07:53:13;7.40;99.90
11047;DHT22;5576;50.008;10.596;2022-10-10T07:55:40;13.90;99.90
11047;DHT22;5576;50.008;10.596;2022-10-10T07:58:08;11.10;99.90
11047;DHT22;5576;50.008;10.596;2022-10-10T08:00:33;11.20;99.90
11047;DHT22;5576;50.008;10.596;2022-10-10T08:03:00;11.30;99.90
11047;DHT22;5576;50.008;10.596;2022-10-10T08:05:26;11.30;99.90
11047;DHT22;5576;50.008;10.596;2022-10-10T08:07:52;11.30;99.90
11047;DHT22;5576;50.008;10.596;2022-10-10T08:10:17;11.40;99.90
11047;DHT22;5576;50.008;10.596;2022-10-10T08:12:43;11.50;99.90
11047;DHT22;5576;50.008;10.596;2022-10-10T08:15:09;11.50;99.90
11047;DHT22;5576;50.008;10.596;2022-10-10T08:17:35;10.70;99.90
11047;DHT22;5576;50.008;10.596;2022-10-10T08:20:01;11.60;99.90
11047;DHT22;5576;50.008;10.596;2022-10-10T08:22:27;11.70;99.90
11047;DHT22;5576;50.008;10.596;2022-10-10T08:24:52;11.60;99.90
11047;DHT22;5576;50.008;10.596;2022-10-10T08:27:18;11.80;99.90
11047;DHT22;5576;50.008;10.596;2022-10-10T08:29:45;15.00;99.90
11047;DHT22;5576;50.008;10.596;2022-10-10T08:32:11;12.00;99.90
11047;DHT22;5576;50.008;10.596;2022-10-10T08:34:36;12.00;99.90
11047;DHT22;5576;50.008;10.596;2022-10-10T08:37:02;14.70;99.90
11047;DHT22;5576;50.008;10.596;2022-10-10T08:39:28;12.20;99.90
11047;DHT22;5576;50.008;10.596;2022-10-10T08:41:56;12.30;99.90
11047;DHT22;5576;50.008;10.596;2022-10-10T08:44:32;12.30;99.90
11047;DHT22;5576;50.008;10.596;2022-10-10T08:49:36;12.40;99.90
11047;DHT22;5576;50.008;10.596;2022-10-10T08:54:36;12.60;99.90
11047;DHT22;5576;50.008;10.596;2022-10-10T08:57:05;17.20;99.90
11047;DHT22;5576;50.008;10.596;2022-10-10T08:59:35;12.70;99.90
11047;DHT22;5576;50.008;10.596;2022-10-10T09:05:02;12.80;99.90
11047;DHT22;5576;50.008;10.596;2022-10-10T09:07:53;12.90;99.90
11047;DHT22;5576;50.008;10.596;2022-10-10T09:18:27;13.30;99.90
11047;DHT22;5576;50.008;10.596;2022-10-10T09:21:05;11.60;99.90
11047;DHT22;5576;50.008;10.596;2022-10-10T09:23:41;13.40;99.90
11047;DHT22;5576;50.008;10.596;2022-10-10T09:26:12;15.60;99.90
11047;DHT22;5576;50.008;10.596;2022-10-10T09:28:53;13.50;99.90
11047;DHT22;5576;50.008;10.596;2022-10-10T09:33:56;13.70;99.90
11047;DHT22;5576;50.008;10.596;2022-10-10T09:36:29;13.80;99.90
11047;DHT22;5576;50.008;10.596;2022-10-10T09:39:03;13.80;99.90
11047;DHT22;5576;50.008;10.596;2022-10-10T09:41:52;13.90;99.90
11047;DHT22;5576;50.008;10.596;2022-10-10T09:44:20;13.90;99.90
11047;DHT22;5576;50.008;10.596;2022-10-10T09:46:46;14.00;99.90
11047;DHT22;5576;50.008;10.596;2022-10-10T09:49:14;14.00;99.90
11047;DHT22;5576;50.008;10.596;2022-10-10T09:51:42;15.40;99.90
11047;DHT22;5576;50.008;10.596;2022-10-10T09:54:08;14.10;99.90
11047;DHT22;5576;50.008;10.596;2022-10-10T09:56:43;14.30;99.90
11047;DHT22;5576;50.008;10.596;2022-10-10T10:02:25;14.60;99.90
11047;DHT22;5576;50.008;10.596;2022-10-10T10:04:52;14.60;99.90
11047;DHT22;5576;50.008;10.596;2022-10-10T10:07:34;15.30;99.90
11047;DHT22;5576;50.008;10.596;2022-10-10T10:10:11;14.80;99.90
11047;DHT22;5576;50.008;10.596;2022-10-10T10:12:42;14.90;99.90
11047;DHT22;5576;50.008;10.596;2022-10-10T10:15:18;15.00;99.90
11047;DHT22;5576;50.008;10.596;2022-10-10T10:17:45;16.80;99.90
11047;DHT22;5576;50.008;10.596;2022-10-10T10:20:32;15.20;99.90
11047;DHT22;5576;50.008;10.596;2022-10-10T10:22:58;15.20;99.90
11047;DHT22;5576;50.008;10.596;2022-10-10T10:28:18;15.30;99.90
11047;DHT22;5576;50.008;10.596;2022-10-10T10:30:45;16.10;99.90
11047;DHT22;5576;50.008;10.596;2022-10-10T10:35:53;18.40;99.90
11047;DHT22;5576;50.008;10.596;2022-10-10T10:41:05;15.30;99.90
11047;DHT22;5576;50.008;10.596;2022-10-10T10:43:38;15.40;99.90
11047;DHT22;5576;50.008;10.596;2022-10-10T10:48:49;15.40;99.90
11047;DHT22;5576;50.008;10.596;2022-10-10T10:56:51;15.70;99.90
11047;DHT22;5576;50.008;10.596;2022-10-10T11:04:54;15.90;99.90
11047;DHT22;5576;50.008;10.596;2022-10-10T11:07:23;16.30;99.90
11047;DHT22;5576;50.008;10.596;2022-10-10T11:09:53;16.50;99.90
11047;DHT22;5576;50.008;10.596;2022-10-10T11:15:17;17.70;99.90
11047;DHT22;5576;50.008;10.596;2022-10-10T11:23:17;16.80;99.90
11047;DHT22;5576;50.008;10.596;2022-10-10T11:25:50;16.90;99.90
11047;DHT22;5576;50.008;10.596;2022-10-10T11:28:25;16.00;99.90
11047;DHT22;5576;50.008;10.596;2022-10-10T11:30:57;17.00;99.90
11047;DHT22;5576;50.008;10.596;2022-10-10T11:33:29;17.00;99.90
11047;DHT22;5576;50.008;10.596;2022-10-10T11:36:02;20.60;99.90
11047;DHT22;5576;50.008;10.596;2022-10-10T11:41:04;17.30;99.90
11047;DHT22;5576;50.008;10.596;2022-10-10T11:43:37;17.30;99.90
11047;DHT22;5576;50.008;10.596;2022-10-10T11:46:18;17.40;99.90
11047;DHT22;5576;50.008;10.596;2022-10-10T11:48:56;17.30;99.90
11047;DHT22;5576;50.008;10.596;2022-10-10T11:57:01;17.50;99.90
11047;DHT22;5576;50.008;10.596;2022-10-10T11:59:35;17.40;99.90
11047;DHT22;5576;50.008;10.596;2022-10-10T12:04:44;17.40;99.90
11047;DHT22;5576;50.008;10.596;2022-10-10T12:09:46;17.30;99.90
11047;DHT22;5576;50.008;10.596;2022-10-10T12:14:46;17.30;99.90
11047;DHT22;5576;50.008;10.596;2022-10-10T12:17:21;17.30;99.90
11047;DHT22;5576;50.008;10.596;2022-10-10T12:19:50;17.30;99.90
11047;DHT22;5576;50.008;10.596;2022-10-10T12:22:25;17.40;99.90
11047;DHT22;5576;50.008;10.596;2022-10-10T12:30:34;17.60;99.90
11047;DHT22;5576;50.008;10.596;2022-10-10T12:33:00;17.90;99.90
11047;DHT22;5576;50.008;10.596;2022-10-10T12:35:31;14.50;99.90
11047;DHT22;5576;50.008;10.596;2022-10-10T12:40:33;22.30;99.90
11047;DHT22;5576;50.008;10.596;2022-10-10T12:43:02;18.30;99.90
11047;DHT22;5576;50.008;10.596;2022-10-10T12:50:27;18.50;99.90
11047;DHT22;5576;50.008;10.596;2022-10-10T12:52:57;16.70;99.90
11047;DHT22;5576;50.008;10.596;2022-10-10T12:55:27;18.50;99.90
11047;DHT22;5576;50.008;10.596;2022-10-10T12:57:57;18.50;99.90
11047;DHT22;5576;50.008;10.596;2022-10-10T13:00:25;18.60;99.90
11047;DHT22;5576;50.008;10.596;2022-10-10T13:02:54;19.00;99.90
11047;DHT22;5576;50.008;10.596;2022-10-10T13:05:27;19.00;99.90
11047;DHT22;5576;50.008;10.596;2022-10-10T13:08:00;19.10;99.90
11047;DHT22;5576;50.008;10.596;2022-10-10T13:10:28;18.80;99.90
11047;DHT22;5576;50.008;10.596;2022-10-10T13:13:01;18.30;99.90
11047;DHT22;5576;50.008;10.596;2022-10-10T13:15:29;19.20;99.90
11047;DHT22;5576;50.008;10.596;2022-10-10T13:17:55;18.00;99.90
11047;DHT22;5576;50.008;10.596;2022-10-10T13:20:34;19.30;99.90
11047;DHT22;5576;50.008;10.596;2022-10-10T13:23:05;19.10;99.90
11047;DHT22;5576;50.008;10.596;2022-10-10T13:25:32;19.10;99.90
11047;DHT22;5576;50.008;10.596;2022-10-10T13:27:59;19.10;99.90
11047;DHT22;5576;50.008;10.596;2022-10-10T13:30:25;19.20;99.90
11047;DHT22;5576;50.008;10.596;2022-10-10T13:32:52;19.20;99.90
11047;DHT22;5576;50.008;10.596;2022-10-10T13:35:23;19.30;99.90
11047;DHT22;5576;50.008;10.596;2022-10-10T13:37:54;19.30;99.90
11047;DHT22;5576;50.008;10.596;2022-10-10T13:40:20;19.30;99.90
11047;DHT22;5576;50.008;10.596;2022-10-10T13:42:47;19.30;99.90
11047;DHT22;5576;50.008;10.596;2022-10-10T13:45:34;19.50;99.90
11047;DHT22;5576;50.008;10.596;2022-10-10T13:50:30;19.60;99.90
11047;DHT22;5576;50.008;10.596;2022-10-10T13:58:24;19.70;99.90
11047;DHT22;5576;50.008;10.596;2022-10-10T14:01:19;19.60;99.90
11047;DHT22;5576;50.008;10.596;2022-10-10T14:03:47;19.50;99.90
11047;DHT22;5576;50.008;10.596;2022-10-10T14:06:18;19.50;99.90
11047;DHT22;5576;50.008;10.596;2022-10-10T14:08:45;19.50;99.90
11047;DHT22;5576;50.008;10.596;2022-10-10T14:11:16;19.40;99.90
11047;DHT22;5576;50.008;10.596;2022-10-10T14:13:48;19.40;99.90
11047;DHT22;5576;50.008;10.596;2022-10-10T14:18:45;19.40;99.90
11047;DHT22;5576;50.008;10.596;2022-10-10T14:23:38;19.50;99.90
11047;DHT22;5576;50.008;10.596;2022-10-10T14:26:05;19.50;99.90
11047;DHT22;5576;50.008;10.596;2022-10-10T14:28:33;19.50;99.90
11047;DHT22;5576;50.008;10.596;2022-10-10T14:31:01;19.60;99.90
11047;DHT22;5576;50.008;10.596;2022-10-10T14:33:28;19.60;99.90
11047;DHT22;5576;50.008;10.596;2022-10-10T14:35:54;19.60;99.90
11047;DHT22;5576;50.008;10.596;2022-10-10T14:38:21;19.40;99.90
11047;DHT22;5576;50.008;10.596;2022-10-10T14:40:48;19.40;99.90
11047;DHT22;5576;50.008;10.596;2022-10-10T14:43:15;19.40;99.90
11047;DHT22;5576;50.008;10.596;2022-10-10T14:45:43;19.50;99.90
11047;DHT22;5576;50.008;10.596;2022-10-10T14:48:10;19.50;99.90
11047;DHT22;5576;50.008;10.596;2022-10-10T14:50:40;19.60;99.90
11047;DHT22;5576;50.008;10.596;2022-10-10T14:53:08;19.60;99.90
11047;DHT22;5576;50.008;10.596;2022-10-10T14:55:34;19.70;99.90
11047;DHT22;5576;50.008;10.596;2022-10-10T14:58:00;19.70;99.90
11047;DHT22;5576;50.008;10.596;2022-10-10T15:00:27;19.80;99.90
11047;DHT22;5576;50.008;10.596;2022-10-10T15:02:53;19.80;99.90
11047;DHT22;5576;50.008;10.596;2022-10-10T15:05:19;19.80;99.90
11047;DHT22;5576;50.008;10.596;2022-10-10T15:10:13;16.70;99.90
11047;DHT22;5576;50.008;10.596;2022-10-10T15:12:41;19.70;99.90
11047;DHT22;5576;50.008;10.596;2022-10-10T15:15:08;19.60;99.90
11047;DHT22;5576;50.008;10.596;2022-10-10T15:17:34;19.60;99.90
11047;DHT22;5576;50.008;10.596;2022-10-10T15:20:01;22.40;99.90
11047;DHT22;5576;50.008;10.596;2022-10-10T15:22:28;19.10;99.90
11047;DHT22;5576;50.008;10.596;2022-10-10T15:24:55;19.10;99.90
11047;DHT22;5576;50.008;10.596;2022-10-10T15:27:20;19.00;99.90
11047;DHT22;5576;50.008;10.596;2022-10-10T15:29:46;18.80;99.90
11047;DHT22;5576;50.008;10.596;2022-10-10T15:32:12;18.80;99.90
11047;DHT22;5576;50.008;10.596;2022-10-10T15:34:37;18.80;99.90
11047;DHT22;5576;50.008;10.596;2022-10-10T15:37:03;21.30;99.90
11047;DHT22;5576;50.008;10.596;2022-10-10T15:39:29;18.60;99.90
11047;DHT22;5576;50.008;10.596;2022-10-10T15:41:56;18.50;99.90
11047;DHT22;5576;50.008;10.596;2022-10-10T15:44:22;18.50;99.90
11047;DHT22;5576;50.008;10.596;2022-10-10T15:46:48;18.30;99.90
11047;DHT22;5576;50.008;10.596;2022-10-10T15:49:13;19.60;99.90
11047;DHT22;5576;50.008;10.596;2022-10-10T15:51:44;18.20;99.90
11047;DHT22;5576;50.008;10.596;2022-10-10T15:54:10;18.20;99.90
11047;DHT22;5576;50.008;10.596;2022-10-10T15:56:37;18.10;99.90
11047;DHT22;5576;50.008;10.596;2022-10-10T15:59:03;17.50;99.90
11047;DHT22;5576;50.008;10.596;2022-10-10T16:01:30;18.00;99.90
11047;DHT22;5576;50.008;10.596;2022-10-10T16:03:57;18.00;99.90
11047;DHT22;5576;50.008;10.596;2022-10-10T16:06:24;17.90;99.90
11047;DHT22;5576;50.008;10.596;2022-10-10T16:08:50;17.90;99.90
11047;DHT22;5576;50.008;10.596;2022-10-10T16:11:19;17.90;99.90
11047;DHT22;5576;50.008;10.596;2022-10-10T16:13:47;17.80;99.90
11047;DHT22;5576;50.008;10.596;2022-10-10T16:16:13;17.80;99.90
11047;DHT22;5576;50.008;10.596;2022-10-10T16:18:40;17.60;99.90
11047;DHT22;5576;50.008;10.596;2022-10-10T16:21:10;17.60;99.90
11047;DHT22;5576;50.008;10.596;2022-10-10T16:23:37;17.40;99.90
11047;DHT22;5576;50.008;10.596;2022-10-10T16:28:30;17.10;99.90
11047;DHT22;5576;50.008;10.596;2022-10-10T16:30:56;16.90;99.90
11047;DHT22;5576;50.008;10.596;2022-10-10T16:33:22;16.70;99.90
11047;DHT22;5576;50.008;10.596;2022-10-10T16:35:48;16.60;99.90
11047;DHT22;5576;50.008;10.596;2022-10-10T16:38:13;16.40;99.90
11047;DHT22;5576;50.008;10.596;2022-10-10T16:40:39;18.10;99.90
11047;DHT22;5576;50.008;10.596;2022-10-10T16:43:05;16.30;99.90
11047;DHT22;5576;50.008;10.596;2022-10-10T16:45:31;16.20;99.90
11047;DHT22;5576;50.008;10.596;2022-10-10T16:47:56;16.10;99.90
11047;DHT22;5576;50.008;10.596;2022-10-10T16:50:22;15.90;99.90
11047;DHT22;5576;50.008;10.596;2022-10-10T16:52:48;18.10;99.90
11047;DHT22;5576;50.008;10.596;2022-10-10T16:55:13;15.70;99.90
11047;DHT22;5576;50.008;10.596;2022-10-10T16:57:39;15.60;99.90
11047;DHT22;5576;50.008;10.596;2022-10-10T17:00:06;18.20;99.90
11047;DHT22;5576;50.008;10.596;2022-10-10T17:02:33;15.40;99.90
11047;DHT22;5576;50.008;10.596;2022-10-10T17:04:59;15.40;99.90
11047;DHT22;5576;50.008;10.596;2022-10-10T17:07:25;15.30;99.90
11047;DHT22;5576;50.008;10.596;2022-10-10T17:09:51;15.10;99.90
11047;DHT22;5576;50.008;10.596;2022-10-10T17:12:18;15.10;99.90
11047;DHT22;5576;50.008;10.596;2022-10-10T17:14:44;15.10;99.90
11047;DHT22;5576;50.008;10.596;2022-10-10T17:17:10;15.00;99.90
11047;DHT22;5576;50.008;10.596;2022-10-10T17:19:35;14.90;99.90
11047;DHT22;5576;50.008;10.596;2022-10-10T17:22:01;14.70;99.90
11047;DHT22;5576;50.008;10.596;2022-10-10T17:26:53;14.20;99.90
11047;DHT22;5576;50.008;10.596;2022-10-10T17:29:19;17.90;99.90
11047;DHT22;5576;50.008;10.596;2022-10-10T17:31:44;14.50;99.90
11047;DHT22;5576;50.008;10.596;2022-10-10T17:34:10;14.50;99.90
11047;DHT22;5576;50.008;10.596;2022-10-10T17:36:36;14.40;99.90
11047;DHT22;5576;50.008;10.596;2022-10-10T17:39:02;16.20;99.90
11047;DHT22;5576;50.008;10.596;2022-10-10T17:41:28;14.30;99.90
11047;DHT22;5576;50.008;10.596;2022-10-10T17:43:54;14.30;99.90
11047;DHT22;5576;50.008;10.596;2022-10-10T17:46:23;14.30;99.90
11047;DHT22;5576;50.008;10.596;2022-10-10T17:48:50;14.30;99.90
11047;DHT22;5576;50.008;10.596;2022-10-10T17:51:18;14.20;99.90
11047;DHT22;5576;50.008;10.596;2022-10-10T17:53:48;16.50;99.90